createdAt,value
2017-09-10T00:00:25.124Z,36.5
2017-09-10T00:01:22.037Z,36.5
2017-09-10T00:02:22.231Z,36.5
2017-09-10T00:03:22.178Z,36.4
2017-09-10T00:04:24.190Z,36.5
2017-09-10T00:05:22.117Z,36.4
2017-09-10T00:06:22.132Z,36.5
2017-09-10T00:07:24.227Z,36.5
2017-09-10T00:08:24.524Z,36.5
2017-09-10T00:09:24.324Z,36.5
2017-09-10T00:10:25.821Z,36.5
2017-09-10T00:11:24.251Z,36.5
2017-09-10T00:12:24.324Z,36.5
2017-09-10T00:13:22.621Z,36.5
2017-09-10T00:14:22.981Z,36.5
2017-09-10T00:15:24.470Z,36.5
2017-09-10T00:16:22.803Z,36.5
2017-09-10T00:17:26.194Z,36.5
2017-09-10T00:18:26.074Z,36.5
2017-09-10T00:19:22.816Z,36.5
2017-09-10T00:20:26.659Z,36.5
2017-09-10T00:21:23.010Z,36.5
2017-09-10T00:22:23.023Z,36.5
2017-09-10T00:23:23.208Z,36.5
2017-09-10T00:24:23.139Z,36.5
2017-09-10T00:25:23.145Z,36.5
2017-09-10T00:26:27.001Z,36.5
2017-09-10T00:27:26.827Z,36.5
2017-09-10T00:28:26.642Z,36.5
2017-09-10T00:29:26.873Z,36.5
2017-09-10T00:30:26.737Z,36.4
2017-09-10T00:31:25.385Z,36.4
2017-09-10T00:32:24.062Z,36.4
2017-09-10T00:41:59.580Z,36.5
2017-09-10T00:42:57.858Z,36.6
2017-09-10T00:43:56.044Z,36.6
2017-09-10T00:44:59.396Z,36.6
2017-09-10T00:45:59.454Z,36.6
2017-09-10T00:46:56.360Z,36.6
2017-09-10T00:47:59.996Z,36.6
2017-09-10T00:48:59.568Z,36.6
2017-09-10T00:49:56.518Z,36.6
2017-09-10T00:50:59.871Z,36.5
2017-09-10T00:51:56.590Z,36.5
2017-09-10T00:52:56.609Z,36.5
2017-09-10T00:53:56.803Z,36.5
2017-09-10T00:54:56.647Z,36.5
2017-09-10T00:56:00.566Z,36.5
2017-09-10T00:56:58.670Z,36.5
2017-09-10T00:57:56.595Z,36.5
2017-09-10T00:58:59.943Z,36.5
2017-09-10T01:00:00.450Z,36.5
2017-09-10T01:00:56.934Z,36.5
2017-09-10T01:01:56.741Z,36.5
2017-09-10T01:02:56.933Z,36.5
2017-09-10T01:03:57.016Z,36.5
2017-09-10T01:05:00.412Z,36.5
2017-09-10T01:05:57.408Z,36.4
2017-09-10T01:06:56.947Z,36.4
2017-09-10T01:07:57.135Z,36.4
2017-09-10T01:08:57.017Z,36.4
2017-09-10T01:09:57.033Z,36.4
2017-09-10T01:10:57.078Z,36.4
2017-09-10T01:12:00.750Z,36.4
2017-09-10T01:12:57.136Z,36.4
2017-09-10T01:13:57.290Z,36.4
2017-09-10T01:14:57.349Z,36.4
2017-09-10T01:15:57.211Z,36.4
2017-09-10T01:17:00.595Z,36.4
2017-09-10T01:17:57.725Z,36.4
2017-09-10T01:19:00.632Z,36.4
2017-09-10T01:20:00.741Z,36.4
2017-09-10T01:20:57.644Z,36.4
2017-09-10T01:22:00.856Z,36.4
2017-09-10T01:23:00.905Z,36.4
2017-09-10T01:23:57.927Z,36.4
2017-09-10T01:24:57.917Z,36.4
2017-09-10T01:25:57.833Z,36.4
2017-09-10T01:27:00.412Z,36.4
2017-09-10T01:27:57.872Z,36.4
2017-09-10T01:29:01.216Z,36.4
2017-09-10T01:30:01.706Z,36.4
2017-09-10T01:30:58.122Z,36.4
2017-09-10T01:31:57.989Z,36.4
2017-09-10T01:32:58.202Z,36.4
2017-09-10T01:33:58.255Z,36.4
2017-09-10T01:35:00.032Z,36.4
2017-09-10T01:36:01.791Z,36.4
2017-09-10T01:36:58.175Z,36.4
2017-09-10T01:37:58.390Z,36.4
2017-09-10T01:38:58.264Z,36.4
2017-09-10T01:39:58.458Z,36.4
2017-09-10T01:41:00.268Z,36.4
2017-09-10T01:41:58.952Z,36.4
2017-09-10T01:42:58.543Z,36.4
2017-09-10T01:43:58.639Z,36.4
2017-09-10T01:45:02.017Z,36.3
2017-09-10T01:45:58.752Z,36.3
2017-09-10T01:47:02.112Z,36.3
2017-09-10T01:48:00.935Z,36.3
2017-09-10T01:49:00.980Z,36.3
2017-09-10T01:50:02.558Z,36.4
2017-09-10T01:51:00.385Z,36.4
2017-09-10T01:52:02.393Z,36.4
2017-09-10T01:53:03.185Z,36.4
2017-09-10T01:54:03.108Z,36.4
2017-09-10T01:55:01.366Z,36.4
2017-09-10T01:56:01.840Z,36.4
2017-09-10T01:56:59.426Z,36.4
2017-09-10T01:58:00.199Z,36.4
2017-09-10T01:59:04.281Z,36.4
2017-09-10T02:00:00.376Z,36.4
2017-09-10T02:01:03.087Z,36.4
2017-09-10T02:02:01.617Z,36.4
2017-09-10T02:03:02.931Z,36.4
2017-09-10T02:04:01.744Z,36.4
2017-09-10T02:05:00.489Z,36.4
2017-09-10T02:06:00.220Z,36.4
2017-09-10T02:07:03.323Z,36.4
2017-09-10T02:08:00.047Z,36.4
2017-09-10T02:09:00.721Z,36.4
2017-09-10T02:10:04.059Z,36.4
2017-09-10T02:11:04.165Z,36.4
2017-09-10T02:12:00.684Z,36.4
2017-09-10T02:13:00.241Z,36.4
2017-09-10T02:14:01.170Z,36.4
2017-09-10T02:15:02.248Z,36.4
2017-09-10T02:16:01.168Z,36.4
2017-09-10T02:17:04.656Z,36.4
2017-09-10T02:18:02.945Z,36.3
2017-09-10T02:19:00.590Z,36.4
2017-09-10T02:20:00.580Z,36.4
2017-09-10T02:21:04.184Z,36.4
2017-09-10T02:22:04.254Z,36.3
2017-09-10T02:23:04.158Z,36.3
2017-09-10T02:24:04.930Z,36.3
2017-09-10T02:25:03.042Z,36.4
2017-09-10T02:26:04.525Z,36.4
2017-09-10T02:27:03.178Z,36.4
2017-09-10T02:28:01.126Z,36.3
2017-09-10T02:29:03.976Z,36.3
2017-09-10T02:30:01.737Z,36.3
2017-09-10T02:31:01.520Z,36.3
2017-09-10T02:32:03.478Z,36.4
2017-09-10T02:33:04.955Z,36.4
2017-09-10T02:34:03.377Z,36.4
2017-09-10T02:35:04.393Z,36.4
2017-09-10T02:36:05.825Z,36.4
2017-09-10T02:37:01.578Z,36.4
2017-09-10T02:38:01.598Z,36.3
2017-09-10T02:39:01.908Z,36.4
2017-09-10T02:40:03.837Z,36.4
2017-09-10T02:41:05.121Z,36.4
2017-09-10T02:42:02.117Z,36.4
2017-09-10T02:43:01.917Z,36.3
2017-09-10T02:44:05.323Z,36.3
2017-09-10T02:45:05.500Z,36.3
2017-09-10T02:46:02.600Z,36.3
2017-09-10T02:47:04.006Z,36.3
2017-09-10T02:48:02.584Z,36.3
2017-09-10T02:49:02.310Z,36.3
2017-09-10T02:50:04.295Z,36.3
2017-09-10T02:51:05.676Z,36.3
2017-09-10T02:52:02.912Z,36.3
2017-09-10T02:53:02.349Z,36.3
2017-09-10T02:54:06.223Z,36.3
2017-09-10T02:55:02.982Z,36.3
2017-09-10T02:56:02.461Z,36.3
2017-09-10T02:57:02.493Z,36.3
2017-09-10T02:58:05.991Z,36.3
2017-09-10T02:59:04.440Z,36.3
2017-09-10T03:00:06.352Z,36.3
2017-09-10T03:01:03.302Z,36.3
2017-09-10T03:02:02.682Z,36.3
2017-09-10T03:03:06.184Z,36.3
2017-09-10T03:04:04.905Z,36.3
2017-09-10T03:05:03.061Z,36.3
2017-09-10T03:06:03.221Z,36.3
2017-09-10T03:07:03.096Z,36.3
2017-09-10T03:08:03.121Z,36.3
2017-09-10T03:09:04.861Z,36.3
2017-09-10T03:10:03.188Z,36.3
2017-09-10T03:11:04.984Z,36.3
2017-09-10T03:12:03.402Z,36.3
2017-09-10T03:13:06.704Z,36.3
2017-09-10T03:14:06.738Z,36.3
2017-09-10T03:15:06.600Z,36.3
2017-09-10T03:16:03.517Z,36.3
2017-09-10T03:17:03.403Z,36.3
2017-09-10T03:18:03.918Z,36.3
2017-09-10T03:19:06.934Z,36.3
2017-09-10T03:20:03.610Z,36.3
2017-09-10T03:21:06.060Z,36.3
2017-09-10T03:22:03.894Z,36.3
2017-09-10T03:23:03.923Z,36.3
2017-09-10T03:24:04.264Z,36.3
2017-09-10T03:25:04.123Z,36.3
2017-09-10T03:26:05.790Z,36.3
2017-09-10T03:27:07.491Z,36.3
2017-09-10T03:28:04.140Z,36.3
2017-09-10T03:29:07.488Z,36.3
2017-09-10T03:30:06.498Z,36.3
2017-09-10T03:31:07.354Z,36.3
2017-09-10T03:32:04.292Z,36.3
2017-09-10T03:33:04.289Z,36.3
2017-09-10T03:34:04.419Z,36.3
2017-09-10T03:35:04.298Z,36.3
2017-09-10T03:36:10.350Z,36.3
2017-09-10T03:37:07.814Z,36.3
2017-09-10T03:38:04.525Z,36.3
2017-09-10T03:39:06.685Z,36.3
2017-09-10T03:40:08.103Z,36.3
2017-09-10T03:41:07.966Z,36.3
2017-09-10T03:42:05.107Z,36.3
2017-09-10T03:43:04.691Z,36.3
2017-09-10T03:44:04.905Z,36.3
2017-09-10T03:45:06.697Z,36.3
2017-09-10T03:46:08.184Z,36.3
2017-09-10T03:47:08.350Z,36.3
2017-09-10T03:48:05.889Z,36.3
2017-09-10T03:49:04.906Z,36.3
2017-09-10T03:50:06.815Z,36.3
2017-09-10T03:51:05.113Z,36.3
2017-09-10T03:52:08.463Z,36.3
2017-09-10T03:53:05.021Z,36.3
2017-09-10T03:54:07.159Z,36.3
2017-09-10T03:55:08.385Z,36.3
2017-09-10T03:56:05.177Z,36.3
2017-09-10T03:57:07.073Z,36.3
2017-09-10T03:58:08.731Z,36.3
2017-09-10T03:59:06.023Z,36.3
2017-09-10T04:00:07.502Z,36.3
2017-09-10T04:01:05.366Z,36.3
2017-09-10T04:02:05.501Z,36.3
2017-09-10T04:03:05.446Z,36.3
2017-09-10T04:04:05.449Z,36.3
2017-09-10T04:05:05.545Z,36.3
2017-09-10T04:06:06.003Z,36.3
2017-09-10T04:07:09.144Z,36.3
2017-09-10T04:08:09.601Z,36.3
2017-09-10T04:09:07.745Z,36.3
2017-09-10T04:10:05.861Z,36.3
2017-09-10T04:11:05.897Z,36.3
2017-09-10T04:12:06.179Z,36.3
2017-09-10T04:13:07.830Z,36.3
2017-09-10T04:14:05.936Z,36.3
2017-09-10T04:15:07.712Z,36.3
2017-09-10T04:16:05.929Z,36.3
2017-09-10T04:17:05.955Z,36.3
2017-09-10T04:18:06.426Z,36.3
2017-09-10T04:19:08.181Z,36.3
2017-09-10T04:20:07.980Z,36.3
2017-09-10T04:21:08.008Z,36.3
2017-09-10T04:22:08.034Z,36.3
2017-09-10T04:23:08.066Z,36.3
2017-09-10T04:24:08.525Z,36.3
2017-09-10T04:25:06.219Z,36.3
2017-09-10T04:26:08.184Z,36.3
2017-09-10T04:27:09.731Z,36.3
2017-09-10T04:28:09.910Z,36.3
2017-09-10T04:29:10.000Z,36.3
2017-09-10T04:30:10.098Z,36.3
2017-09-10T04:31:06.693Z,36.3
2017-09-10T04:32:06.566Z,36.3
2017-09-10T04:33:09.916Z,36.3
2017-09-10T04:34:06.831Z,36.3
2017-09-10T04:35:08.594Z,36.3
2017-09-10T04:36:06.986Z,36.3
2017-09-10T04:37:06.752Z,36.3
2017-09-10T04:38:06.992Z,36.3
2017-09-10T04:39:10.354Z,36.3
2017-09-10T04:40:10.351Z,36.3
2017-09-10T04:41:09.058Z,36.3
2017-09-10T04:42:10.678Z,36.3
2017-09-10T04:43:07.055Z,36.3
2017-09-10T04:44:10.460Z,36.3
2017-09-10T04:45:07.366Z,36.3
2017-09-10T04:46:07.380Z,36.3
2017-09-10T04:47:10.784Z,36.3
2017-09-10T04:48:07.800Z,36.3
2017-09-10T04:49:07.379Z,36.3
2017-09-10T04:50:07.381Z,36.3
2017-09-10T04:51:10.901Z,36.3
2017-09-10T04:52:09.564Z,36.3
2017-09-10T04:53:11.001Z,36.3
2017-09-10T04:54:07.795Z,36.3
2017-09-10T04:55:09.500Z,36.3
2017-09-10T04:56:09.740Z,36.3
2017-09-10T04:57:07.881Z,36.3
2017-09-10T04:58:07.740Z,36.3
2017-09-10T04:59:07.888Z,36.3
2017-09-10T05:00:08.270Z,36.3
2017-09-10T05:01:11.150Z,36.3
2017-09-10T05:02:11.219Z,36.3
2017-09-10T05:03:11.483Z,36.3
2017-09-10T05:04:08.047Z,36.3
2017-09-10T05:05:10.226Z,36.3
2017-09-10T05:06:08.677Z,36.3
2017-09-10T05:07:10.100Z,36.3
2017-09-10T05:08:08.220Z,36.3
2017-09-10T05:09:08.410Z,36.3
2017-09-10T05:10:10.368Z,36.3
2017-09-10T05:11:08.424Z,36.3
2017-09-10T05:12:12.289Z,36.3
2017-09-10T05:13:10.604Z,36.3
2017-09-10T05:14:08.726Z,36.3
2017-09-10T05:15:08.771Z,36.3
2017-09-10T05:16:10.542Z,36.2
2017-09-10T05:17:08.881Z,36.3
2017-09-10T05:18:10.885Z,36.3
2017-09-10T05:19:08.972Z,36.2
2017-09-10T05:20:08.820Z,36.2
2017-09-10T05:21:11.019Z,36.2
2017-09-10T05:22:11.048Z,36.2
2017-09-10T05:23:11.173Z,36.2
2017-09-10T05:24:11.268Z,36.2
2017-09-10T05:25:12.699Z,36.2
2017-09-10T05:26:09.223Z,36.2
2017-09-10T05:27:11.313Z,36.2
2017-09-10T05:28:09.259Z,36.2
2017-09-10T05:29:12.758Z,36.2
2017-09-10T05:30:09.583Z,36.2
2017-09-10T05:31:09.368Z,36.2
2017-09-10T05:32:11.246Z,36.2
2017-09-10T05:33:09.365Z,36.2
2017-09-10T05:34:11.320Z,36.2
2017-09-10T05:35:09.471Z,36.2
2017-09-10T05:36:10.016Z,36.2
2017-09-10T05:37:11.478Z,36.2
2017-09-10T05:38:09.593Z,36.2
2017-09-10T05:39:09.732Z,36.2
2017-09-10T05:40:09.977Z,36.2
2017-09-10T05:41:11.937Z,36.2
2017-09-10T05:42:10.386Z,36.2
2017-09-10T05:43:12.121Z,36.2
2017-09-10T05:44:13.371Z,36.2
2017-09-10T05:45:10.060Z,36.2
2017-09-10T05:46:13.551Z,36.2
2017-09-10T05:47:11.957Z,36.2
2017-09-10T05:48:13.873Z,36.2
2017-09-10T05:49:12.226Z,36.2
2017-09-10T05:50:10.330Z,36.2
2017-09-10T05:51:10.234Z,36.2
2017-09-10T05:52:10.403Z,36.2
2017-09-10T05:53:13.846Z,36.2
2017-09-10T05:54:14.186Z,36.2
2017-09-10T05:55:13.852Z,36.2
2017-09-10T05:56:13.985Z,36.2
2017-09-10T05:57:13.860Z,36.2
2017-09-10T05:58:10.685Z,36.2
2017-09-10T05:59:10.572Z,36.1
2017-09-10T06:00:11.008Z,36.1
2017-09-10T06:01:10.833Z,36.1
2017-09-10T06:02:10.847Z,36.1
2017-09-10T06:03:14.201Z,36.1
2017-09-10T06:04:10.776Z,36.1
2017-09-10T06:05:10.968Z,36.1
2017-09-10T06:06:14.438Z,36.1
2017-09-10T06:07:14.222Z,36.1
2017-09-10T06:08:14.503Z,36.1
2017-09-10T06:09:14.417Z,36.1
2017-09-10T06:10:11.250Z,36.1
2017-09-10T06:11:13.055Z,36
2017-09-10T06:12:11.549Z,36
2017-09-10T06:13:14.609Z,36
2017-09-10T06:14:11.488Z,36
2017-09-10T06:15:14.973Z,36
2017-09-10T06:16:14.993Z,36
2017-09-10T06:17:13.720Z,36
2017-09-10T06:18:15.441Z,36
2017-09-10T06:19:11.914Z,36
2017-09-10T06:20:15.078Z,36
2017-09-10T06:21:11.917Z,36
2017-09-10T06:22:15.346Z,36
2017-09-10T06:23:12.006Z,36
2017-09-10T06:24:15.522Z,35.9
2017-09-10T06:25:15.309Z,36
2017-09-10T06:26:12.200Z,35.9
2017-09-10T06:27:13.971Z,35.9
2017-09-10T06:28:12.142Z,35.9
2017-09-10T06:29:15.784Z,35.9
2017-09-10T06:30:12.565Z,35.9
2017-09-10T06:31:12.382Z,35.9
2017-09-10T06:32:15.958Z,35.9
2017-09-10T06:33:12.677Z,35.9
2017-09-10T06:34:14.628Z,35.9
2017-09-10T06:35:12.737Z,35.9
2017-09-10T06:36:16.488Z,35.8
2017-09-10T06:37:12.707Z,35.8
2017-09-10T06:38:14.627Z,35.8
2017-09-10T06:39:12.851Z,35.8
2017-09-10T06:40:13.011Z,35.8
2017-09-10T06:41:13.028Z,35.7
2017-09-10T06:42:13.326Z,35.7
2017-09-10T06:43:13.206Z,35.7
2017-09-10T06:44:16.356Z,35.7
2017-09-10T06:45:14.957Z,35.7
2017-09-10T06:46:13.122Z,35.7
2017-09-10T06:47:16.498Z,35.6
2017-09-10T06:48:13.476Z,35.6
2017-09-10T06:49:15.085Z,35.6
2017-09-10T06:50:15.249Z,35.6
2017-09-10T06:51:13.393Z,35.6
2017-09-10T06:52:16.873Z,35.6
2017-09-10T06:53:16.765Z,35.6
2017-09-10T06:54:17.246Z,35.6
2017-09-10T06:55:13.430Z,35.6
2017-09-10T06:56:13.721Z,35.6
2017-09-10T06:57:13.736Z,35.6
2017-09-10T06:58:13.604Z,35.5
2017-09-10T06:59:15.724Z,35.5
2017-09-10T07:00:13.960Z,35.5
2017-09-10T07:01:13.670Z,35.5
2017-09-10T07:02:17.050Z,35.5
2017-09-10T07:03:13.785Z,35.5
2017-09-10T07:04:17.250Z,35.4
2017-09-10T07:05:15.798Z,35.5
2017-09-10T07:06:17.540Z,35.4
2017-09-10T07:07:14.177Z,35.4
2017-09-10T07:08:15.957Z,35.4
2017-09-10T07:09:17.617Z,35.4
2017-09-10T07:10:16.319Z,35.4
2017-09-10T07:11:14.381Z,35.3
2017-09-10T07:12:18.022Z,35.3
2017-09-10T07:13:14.438Z,35.3
2017-09-10T07:14:17.681Z,35.3
2017-09-10T07:15:14.513Z,35.3
2017-09-10T07:16:14.462Z,35.3
2017-09-10T07:17:17.849Z,35.2
2017-09-10T07:18:14.908Z,35.2
2017-09-10T07:19:14.810Z,35.2
2017-09-10T07:20:18.096Z,35.2
2017-09-10T07:21:16.738Z,35.2
2017-09-10T07:22:16.756Z,35.1
2017-09-10T07:23:17.002Z,35.1
2017-09-10T07:24:18.553Z,35.1
2017-09-10T07:25:15.020Z,35.1
2017-09-10T07:26:18.461Z,35.1
2017-09-10T07:27:15.146Z,35.1
2017-09-10T07:28:15.218Z,35
2017-09-10T07:29:17.407Z,35
2017-09-10T07:30:15.839Z,35
2017-09-10T07:31:18.742Z,35
2017-09-10T07:32:15.443Z,35
2017-09-10T07:33:15.629Z,35
2017-09-10T07:34:17.434Z,34.9
2017-09-10T07:35:17.673Z,34.9
2017-09-10T07:36:16.078Z,34.9
2017-09-10T07:37:15.823Z,34.9
2017-09-10T07:38:15.840Z,34.9
2017-09-10T07:39:17.617Z,34.9
2017-09-10T07:40:15.727Z,34.9
2017-09-10T07:41:17.738Z,34.9
2017-09-10T07:42:16.097Z,34.8
2017-09-10T07:43:15.903Z,34.8
2017-09-10T07:44:16.056Z,34.8
2017-09-10T07:45:19.262Z,34.8
2017-09-10T07:46:19.314Z,34.8
2017-09-10T07:47:18.187Z,34.8
2017-09-10T07:48:16.425Z,34.8
2017-09-10T07:49:19.713Z,34.7
2017-09-10T07:50:16.240Z,34.7
2017-09-10T07:51:16.186Z,34.7
2017-09-10T07:52:16.430Z,34.7
2017-09-10T07:53:16.306Z,34.7
2017-09-10T07:54:16.664Z,34.7
2017-09-10T07:55:16.647Z,34.7
2017-09-10T07:56:16.681Z,34.7
2017-09-10T07:57:19.883Z,34.6
2017-09-10T07:58:19.911Z,34.6
2017-09-10T07:59:20.101Z,34.6
2017-09-10T08:00:20.212Z,34.6
2017-09-10T08:01:16.871Z,34.6
2017-09-10T08:02:16.884Z,34.6
2017-09-10T08:03:20.303Z,34.6
2017-09-10T08:04:17.038Z,34.6
2017-09-10T08:05:18.836Z,34.6
2017-09-10T08:06:20.787Z,34.5
2017-09-10T08:07:17.051Z,34.5
2017-09-10T08:08:19.161Z,34.5
2017-09-10T08:09:17.100Z,34.5
2017-09-10T08:10:17.304Z,34.5
2017-09-10T08:11:17.338Z,34.5
2017-09-10T08:12:17.649Z,34.4
2017-09-10T08:13:20.624Z,34.5
2017-09-10T08:14:17.382Z,34.5
2017-09-10T08:15:17.592Z,34.5
2017-09-10T08:16:21.301Z,34.5
2017-09-10T08:17:19.344Z,34.5
2017-09-10T08:18:17.793Z,34.5
2017-09-10T08:19:19.992Z,34.5
2017-09-10T08:20:17.782Z,34.5
2017-09-10T08:21:17.770Z,34.5
2017-09-10T08:22:17.882Z,34.5
2017-09-10T08:23:19.863Z,34.5
2017-09-10T08:24:18.221Z,34.5
2017-09-10T08:25:21.353Z,34.5
2017-09-10T08:26:21.414Z,34.5
2017-09-10T08:27:21.446Z,34.5
2017-09-10T08:28:20.138Z,34.5
2017-09-10T08:29:18.292Z,34.5
2017-09-10T08:30:21.922Z,34.5
2017-09-10T08:31:18.254Z,34.5
2017-09-10T08:32:18.427Z,34.5
2017-09-10T08:33:18.475Z,34.5
2017-09-10T08:34:18.413Z,34.5
2017-09-10T08:35:18.437Z,34.5
2017-09-10T08:36:22.300Z,34.5
2017-09-10T08:37:18.518Z,34.5
2017-09-10T08:38:18.478Z,34.5
2017-09-10T08:39:21.929Z,34.5
2017-09-10T08:40:18.800Z,34.5
2017-09-10T08:41:18.663Z,34.6
2017-09-10T08:42:19.194Z,34.6
2017-09-10T08:43:22.237Z,34.6
2017-09-10T08:44:22.318Z,34.6
2017-09-10T08:45:20.982Z,34.6
2017-09-10T08:46:22.296Z,34.6
2017-09-10T08:47:19.162Z,34.6
2017-09-10T08:48:22.812Z,34.6
2017-09-10T08:49:20.937Z,34.6
2017-09-10T08:50:22.655Z,34.6
2017-09-10T08:51:22.684Z,34.6
2017-09-10T08:52:19.446Z,34.6
2017-09-10T08:53:21.213Z,34.6
2017-09-10T08:54:19.837Z,34.6
2017-09-10T08:55:19.445Z,34.6
2017-09-10T08:56:22.970Z,34.6
2017-09-10T08:57:22.787Z,34.6
2017-09-10T08:58:21.634Z,34.6
2017-09-10T08:59:19.780Z,34.6
2017-09-10T09:00:20.071Z,34.6
2017-09-10T09:01:19.700Z,34.6
2017-09-10T09:02:23.326Z,34.6
2017-09-10T09:03:23.239Z,34.6
2017-09-10T09:04:21.849Z,34.6
2017-09-10T09:05:20.190Z,34.6
2017-09-10T09:06:22.210Z,34.6
2017-09-10T09:07:20.080Z,34.6
2017-09-10T09:08:23.653Z,34.6
2017-09-10T09:09:23.525Z,34.6
2017-09-10T09:10:22.102Z,34.6
2017-09-10T09:11:20.229Z,34.6
2017-09-10T09:12:20.531Z,34.6
2017-09-10T09:13:20.526Z,34.6
2017-09-10T09:14:20.627Z,34.6
2017-09-10T09:15:20.514Z,34.6
2017-09-10T09:16:22.748Z,34.7
2017-09-10T09:17:22.778Z,34.6
2017-09-10T09:18:21.210Z,34.7
2017-09-10T09:19:22.905Z,34.7
2017-09-10T09:20:22.810Z,34.7
2017-09-10T09:21:21.047Z,34.7
2017-09-10T09:22:21.170Z,34.7
2017-09-10T09:23:20.922Z,34.7
2017-09-10T09:24:21.370Z,34.7
2017-09-10T09:25:21.190Z,34.7
2017-09-10T09:26:21.044Z,34.7
2017-09-10T09:27:21.224Z,34.7
2017-09-10T09:28:24.494Z,34.7
2017-09-10T09:29:21.270Z,34.7
2017-09-10T09:30:23.421Z,34.7
2017-09-10T09:31:24.863Z,34.7
2017-09-10T09:32:23.450Z,34.7
2017-09-10T09:33:23.260Z,34.7
2017-09-10T09:34:23.265Z,34.7
2017-09-10T09:35:23.526Z,34.7
2017-09-10T09:36:23.864Z,34.7
2017-09-10T09:37:21.552Z,34.7
2017-09-10T09:38:25.092Z,34.7
2017-09-10T09:39:21.622Z,34.7
2017-09-10T09:40:21.896Z,34.7
2017-09-10T09:41:21.937Z,34.7
2017-09-10T09:42:24.169Z,34.7
2017-09-10T09:43:21.831Z,34.7
2017-09-10T09:44:22.083Z,34.7
2017-09-10T09:45:21.946Z,34.7
2017-09-10T09:46:25.337Z,34.7
2017-09-10T09:47:22.297Z,34.7
2017-09-10T09:48:22.435Z,34.7
2017-09-10T09:49:22.393Z,34.7
2017-09-10T09:50:22.423Z,34.7
2017-09-10T09:51:22.435Z,34.7
2017-09-10T09:52:22.542Z,34.7
2017-09-10T09:53:22.511Z,34.7
2017-09-10T09:54:22.735Z,34.7
2017-09-10T09:55:25.850Z,34.7
2017-09-10T09:56:24.495Z,34.7
2017-09-10T09:57:22.665Z,34.8
2017-09-10T09:58:26.007Z,34.8
2017-09-10T09:59:22.910Z,34.8
2017-09-10T10:00:23.282Z,34.8
2017-09-10T10:01:23.167Z,34.8
2017-09-10T10:02:23.198Z,34.8
2017-09-10T10:03:25.052Z,34.8
2017-09-10T10:04:26.498Z,34.8
2017-09-10T10:05:25.622Z,34.8
2017-09-10T10:06:25.359Z,34.8
2017-09-10T10:07:26.516Z,34.8
2017-09-10T10:08:23.253Z,34.8
2017-09-10T10:09:23.441Z,34.8
2017-09-10T10:10:26.567Z,34.8
2017-09-10T10:11:24.785Z,34.8
2017-09-10T10:12:23.634Z,34.8
2017-09-10T10:13:26.745Z,34.8
2017-09-10T10:14:23.404Z,34.8
2017-09-10T10:15:23.541Z,34.8
2017-09-10T10:16:26.919Z,34.8
2017-09-10T10:17:23.621Z,34.8
2017-09-10T10:18:23.969Z,34.8
2017-09-10T10:19:27.061Z,34.8
2017-09-10T10:20:23.948Z,34.8
2017-09-10T10:21:27.137Z,34.8
2017-09-10T10:22:25.835Z,34.8
2017-09-10T10:23:25.908Z,34.9
2017-09-10T10:24:24.348Z,34.9
2017-09-10T10:25:24.277Z,34.9
2017-09-10T10:26:24.366Z,34.9
2017-09-10T10:27:27.517Z,34.9
2017-09-10T10:28:25.006Z,34.9
2017-09-10T10:29:24.554Z,34.9
2017-09-10T10:30:24.802Z,34.9
2017-09-10T10:31:24.496Z,34.9
2017-09-10T10:32:26.408Z,34.9
2017-09-10T10:33:27.993Z,34.9
2017-09-10T10:34:26.631Z,34.9
2017-09-10T10:35:26.435Z,34.9
2017-09-10T10:36:24.842Z,34.9
2017-09-10T10:37:26.460Z,34.9
2017-09-10T10:38:28.133Z,34.9
2017-09-10T10:39:28.196Z,34.9
2017-09-10T10:40:24.923Z,34.9
2017-09-10T10:41:24.756Z,34.9
2017-09-10T10:42:28.517Z,34.9
2017-09-10T10:43:26.769Z,34.9
2017-09-10T10:44:26.814Z,34.9
2017-09-10T10:45:24.909Z,34.9
2017-09-10T10:46:24.983Z,34.9
2017-09-10T10:47:28.406Z,34.9
2017-09-10T10:48:25.607Z,34.9
2017-09-10T10:49:25.374Z,34.9
2017-09-10T10:50:25.401Z,34.9
2017-09-10T10:51:25.498Z,35
2017-09-10T10:52:28.758Z,34.9
2017-09-10T10:53:28.971Z,34.9
2017-09-10T10:54:25.929Z,34.9
2017-09-10T10:55:29.008Z,34.9
2017-09-10T10:56:25.521Z,34.9
2017-09-10T10:57:25.557Z,34.9
2017-09-10T10:58:25.835Z,35
2017-09-10T10:59:29.090Z,35
2017-09-10T11:00:26.026Z,35
2017-09-10T11:01:29.404Z,34.9
2017-09-10T11:02:28.048Z,35
2017-09-10T11:03:26.152Z,35
2017-09-10T11:04:26.162Z,35
2017-09-10T11:05:26.208Z,35
2017-09-10T11:06:29.698Z,35
2017-09-10T11:07:26.289Z,35
2017-09-10T11:08:28.277Z,35
2017-09-10T11:09:29.582Z,35
2017-09-10T11:10:29.761Z,35
2017-09-10T11:11:28.433Z,35
2017-09-10T11:12:29.970Z,35
2017-09-10T11:13:26.430Z,35
2017-09-10T11:14:26.518Z,35
2017-09-10T11:15:30.040Z,35
2017-09-10T11:16:29.882Z,35
2017-09-10T11:17:26.623Z,35
2017-09-10T11:18:27.156Z,35
2017-09-10T11:19:26.902Z,35
2017-09-10T11:20:30.127Z,35
2017-09-10T11:21:27.017Z,35
2017-09-10T11:22:28.786Z,35
2017-09-10T11:23:28.851Z,35
2017-09-10T11:24:29.170Z,35
2017-09-10T11:25:30.366Z,35
2017-09-10T11:26:27.197Z,35
2017-09-10T11:27:27.055Z,35
2017-09-10T11:28:27.117Z,35
2017-09-10T11:29:27.214Z,35
2017-09-10T11:30:29.471Z,35
2017-09-10T11:31:27.565Z,35
2017-09-10T11:32:27.603Z,35
2017-09-10T11:33:27.640Z,35
2017-09-10T11:34:31.046Z,35
2017-09-10T11:35:29.766Z,35
2017-09-10T11:36:29.879Z,35
2017-09-10T11:37:29.870Z,35
2017-09-10T11:38:27.823Z,35
2017-09-10T11:39:27.861Z,35
2017-09-10T11:40:29.833Z,35
2017-09-10T11:41:30.100Z,35
2017-09-10T11:42:30.133Z,35
2017-09-10T11:43:28.164Z,35
2017-09-10T11:44:28.229Z,35
2017-09-10T11:45:30.009Z,35
2017-09-10T11:46:31.686Z,35
2017-09-10T11:47:30.113Z,35
2017-09-10T11:48:28.537Z,35
2017-09-10T11:49:28.327Z,35
2017-09-10T11:50:30.221Z,35
2017-09-10T11:51:31.734Z,35
2017-09-10T11:52:28.570Z,35
2017-09-10T11:53:28.491Z,35
2017-09-10T11:54:30.723Z,35
2017-09-10T11:55:32.058Z,35
2017-09-10T11:56:28.783Z,35
2017-09-10T11:57:28.627Z,35
2017-09-10T11:58:28.806Z,35
2017-09-10T11:59:30.569Z,35
2017-09-10T12:00:32.364Z,35
2017-09-10T12:01:29.013Z,35
2017-09-10T12:02:28.893Z,35
2017-09-10T12:03:29.114Z,35
2017-09-10T12:04:31.071Z,35
2017-09-10T12:05:32.574Z,35
2017-09-10T12:06:32.867Z,35
2017-09-10T12:07:31.072Z,35
2017-09-10T12:08:31.130Z,35
2017-09-10T12:09:31.159Z,35
2017-09-10T12:10:29.309Z,35
2017-09-10T12:11:29.532Z,35
2017-09-10T12:12:29.878Z,35
2017-09-10T12:13:29.707Z,35
2017-09-10T12:14:29.572Z,35
2017-09-10T12:15:32.898Z,35
2017-09-10T12:16:29.684Z,35
2017-09-10T12:17:29.836Z,35
2017-09-10T12:18:29.995Z,35
2017-09-10T12:19:31.674Z,35
2017-09-10T12:20:31.703Z,35
2017-09-10T12:21:33.204Z,35
2017-09-10T12:22:33.927Z,35
2017-09-10T12:23:30.011Z,35
2017-09-10T12:24:33.716Z,35
2017-09-10T12:25:30.083Z,35
2017-09-10T12:26:30.193Z,34.9
2017-09-10T12:27:33.550Z,34.9
2017-09-10T12:28:33.619Z,34.9
2017-09-10T12:29:32.373Z,34.9
2017-09-10T12:30:30.764Z,34.9
2017-09-10T12:31:32.225Z,34.9
2017-09-10T12:32:32.461Z,34.9
2017-09-10T12:33:30.402Z,34.9
2017-09-10T12:34:32.286Z,34.9
2017-09-10T12:35:32.311Z,34.8
2017-09-10T12:36:34.267Z,34.8
2017-09-10T12:37:32.459Z,34.7
2017-09-10T12:38:30.734Z,34.7
2017-09-10T12:39:32.526Z,34.7
2017-09-10T12:40:30.703Z,34.6
2017-09-10T12:41:32.870Z,34.6
2017-09-10T12:42:33.249Z,34.6
2017-09-10T12:43:32.723Z,34.6
2017-09-10T12:44:34.260Z,34.6
2017-09-10T12:45:34.364Z,34.6
2017-09-10T12:46:31.015Z,34.6
2017-09-10T12:47:34.410Z,34.6
2017-09-10T12:48:34.729Z,34.6
2017-09-10T12:49:34.328Z,34.6
2017-09-10T12:50:34.522Z,34.6
2017-09-10T12:51:34.411Z,34.6
2017-09-10T12:52:34.425Z,34.6
2017-09-10T12:53:34.714Z,34.6
2017-09-10T12:54:31.538Z,34.6
2017-09-10T12:55:31.428Z,34.7
2017-09-10T12:56:33.386Z,34.7
2017-09-10T12:57:31.351Z,34.7
2017-09-10T12:58:31.365Z,34.7
2017-09-10T12:59:31.639Z,34.6
2017-09-10T13:00:33.828Z,34.6
2017-09-10T13:01:34.786Z,34.6
2017-09-10T13:02:31.498Z,34.7
2017-09-10T13:03:35.043Z,34.7
2017-09-10T13:04:34.889Z,34.7
2017-09-10T13:05:33.471Z,34.7
2017-09-10T13:06:31.905Z,34.6
2017-09-10T13:07:33.574Z,34.6
2017-09-10T13:08:31.796Z,34.6
2017-09-10T13:09:31.803Z,34.6
2017-09-10T13:10:35.174Z,34.6
2017-09-10T13:11:32.015Z,34.6
2017-09-10T13:12:32.196Z,34.6
2017-09-10T13:13:35.519Z,34.6
2017-09-10T13:14:32.051Z,34.6
2017-09-10T13:15:35.605Z,34.6
2017-09-10T13:16:34.247Z,34.5
2017-09-10T13:17:32.257Z,34.5
2017-09-10T13:18:34.416Z,34.5
2017-09-10T13:19:32.468Z,34.6
2017-09-10T13:20:34.252Z,34.5
2017-09-10T13:21:32.453Z,34.5
2017-09-10T13:22:32.655Z,34.5
2017-09-10T13:23:32.768Z,34.5
2017-09-10T13:24:35.018Z,34.5
2017-09-10T13:25:32.839Z,34.5
2017-09-10T13:26:32.751Z,34.5
2017-09-10T13:27:34.660Z,34.5
2017-09-10T13:28:32.804Z,34.5
2017-09-10T13:29:32.979Z,34.5
2017-09-10T13:30:36.657Z,34.5
2017-09-10T13:31:33.072Z,34.5
2017-09-10T13:32:36.265Z,34.5
2017-09-10T13:33:32.966Z,34.5
2017-09-10T13:34:36.361Z,34.5